Time;durP1;ratioP1;P1;durP2;ratioP2;P2;SDS_P1;SDS_P2;PMS_P1;PMS_P2;Temp;Humidity;BMP_temperature;BMP_pressure;BME280_temperature;BME280_humidity;BME280_pressure;Samples;Min_cycle;Max_cycle;Signal;HPM_P1;HPM_P2
2021/08/14 00:01:08;;;;;;;8.52;5.32;;;;;;;;;;5052428;28;20399;-80
2021/08/14 00:03:34;;;;;;;8.50;5.55;;;;;;;;;;5052237;28;20367;-80
2021/08/14 00:06:00;;;;;;;12.70;5.50;;;;;;;;;;5052547;28;20718;-84
2021/08/14 00:08:26;;;;;;;10.30;5.32;;;;;;;;;;5034458;28;20415;-80
2021/08/14 00:10:52;;;;;;;6.85;4.93;;;;;;;;;;5052235;28;20467;-80
2021/08/14 00:13:18;;;;;;;36.93;6.57;;;;;;;;;;5034223;28;20486;-83
2021/08/14 00:15:44;;;;;;;44.72;6.90;;;;;;;;;;5034032;28;20865;-81
2021/08/14 00:18:10;;;;;;;22.92;5.57;;;;;;;;;;5052036;28;20407;-85
2021/08/14 00:20:36;;;;;;;14.57;5.63;;;;;;;;;;5052124;28;20375;-87
2021/08/14 00:23:02;;;;;;;6.10;4.88;;;;;;;;;;5051947;28;20374;-80
2021/08/14 00:25:28;;;;;;;8.45;5.38;;;;;;;;;;5034002;28;20380;-81
2021/08/14 00:27:54;;;;;;;7.95;5.20;;;;;;;;;;5051917;28;20395;-82
2021/08/14 00:30:20;;;;;;;7.35;5.75;;;;;;;;;;5051828;28;20387;-82
2021/08/14 00:32:46;;;;;;;6.40;5.33;;;;;;;;;;5051658;28;20383;-85
2021/08/14 00:35:12;;;;;;;5.90;5.15;;;;;;;;;;5051858;28;20497;-80
2021/08/14 00:37:39;;;;;;;6.75;5.45;;;;;;;;;;5051765;28;20435;-84
2021/08/14 00:40:05;;;;;;;6.95;5.03;;;;;;;;;;5033592;28;20387;-79
2021/08/14 00:42:31;;;;;;;6.25;5.65;;;;;;;;;;5051557;28;20387;-80
2021/08/14 00:44:58;;;;;;;8.13;5.68;;;;;;;;;;5051642;28;20741;-81
2021/08/14 00:47:25;;;;;;;8.05;5.45;;;;;;;;;;5033637;28;20376;-78
2021/08/14 00:49:51;;;;;;;7.38;5.57;;;;;;;;;;5051534;28;20368;-82
2021/08/14 00:52:17;;;;;;;7.47;5.90;;;;;;;;;;5051807;28;20505;-79
2021/08/14 00:54:43;;;;;;;8.40;6.10;;;;;;;;;;5051400;28;20459;-85
2021/08/14 00:57:09;;;;;;;5.88;5.28;;;;;;;;;;5051344;28;20384;-81
2021/08/14 00:59:36;;;;;;;7.57;5.65;;;;;;;;;;5033225;28;20400;-82
2021/08/14 01:02:03;;;;;;;9.23;6.00;;;;;;;;;;5050339;28;20422;-81
2021/08/14 01:04:30;;;;;;;5.90;5.30;;;;;;;;;;5051181;28;20433;-81
2021/08/14 01:06:56;;;;;;;6.90;5.95;;;;;;;;;;5032934;28;20392;-80
2021/08/14 01:09:22;;;;;;;7.35;6.25;;;;;;;;;;5033186;28;20540;-82
2021/08/14 01:11:49;;;;;;;6.82;5.88;;;;;;;;;;5051101;28;20478;-82
2021/08/14 01:14:15;;;;;;;7.50;5.70;;;;;;;;;;5050793;28;20368;-81
2021/08/14 01:16:42;;;;;;;8.23;6.35;;;;;;;;;;5051217;28;20376;-78
2021/08/14 01:19:08;;;;;;;6.97;6.03;;;;;;;;;;5050974;28;20440;-83
2021/08/14 01:21:34;;;;;;;8.70;5.70;;;;;;;;;;5032853;28;20531;-81
2021/08/14 01:24:02;;;;;;;7.82;5.78;;;;;;;;;;5032998;28;20379;-82
2021/08/14 01:26:30;;;;;;;7.70;6.20;;;;;;;;;;5050874;28;20368;-80
2021/08/14 01:28:56;;;;;;;7.50;6.20;;;;;;;;;;5050469;28;20737;-79
2021/08/14 01:31:22;;;;;;;6.55;5.85;;;;;;;;;;5050795;28;20415;-81
2021/08/14 01:33:49;;;;;;;6.75;6.05;;;;;;;;;;5050852;28;20363;-78
2021/08/14 01:36:17;;;;;;;7.95;5.78;;;;;;;;;;5050826;28;20386;-84
2021/08/14 01:38:50;;;;;;;9.45;6.15;;;;;;;;;;5050540;28;20403;-79
2021/08/14 01:41:16;;;;;;;7.82;6.10;;;;;;;;;;5032321;28;20391;-84
2021/08/14 01:44:02;;;;;;;8.63;6.40;;;;;;;;;;5032354;28;20765;-82
2021/08/14 01:46:34;;;;;;;7.10;5.95;;;;;;;;;;5050487;28;20371;-80
2021/08/14 01:49:00;;;;;;;8.95;6.30;;;;;;;;;;5050450;28;20925;-83
2021/08/14 01:51:26;;;;;;;7.13;6.17;;;;;;;;;;5032585;28;20415;-82
2021/08/14 01:53:54;;;;;;;10.40;6.50;;;;;;;;;;5050137;28;20372;-83
2021/08/14 01:56:20;;;;;;;8.85;6.68;;;;;;;;;;5050233;28;20364;-84
2021/08/14 01:58:46;;;;;;;8.23;6.53;;;;;;;;;;5050137;28;20873;-80
2021/08/14 02:01:13;;;;;;;9.97;5.97;;;;;;;;;;5032379;28;20530;-80
2021/08/14 02:03:39;;;;;;;31.42;7.63;;;;;;;;;;5050264;28;20368;-81
2021/08/14 02:06:08;;;;;;;24.40;8.18;;;;;;;;;;5050236;28;20652;-80
2021/08/14 02:08:34;;;;;;;8.30;6.60;;;;;;;;;;5049823;28;20468;-79
2021/08/14 02:11:00;;;;;;;8.07;5.97;;;;;;;;;;5049757;28;20367;-82
2021/08/14 02:13:26;;;;;;;8.85;6.18;;;;;;;;;;5030771;28;20398;-81
2021/08/14 02:15:52;;;;;;;10.25;6.47;;;;;;;;;;5049564;28;20383;-81
2021/08/14 02:18:18;;;;;;;7.70;5.75;;;;;;;;;;5031841;28;20407;-82
2021/08/14 02:20:44;;;;;;;7.40;6.53;;;;;;;;;;5050195;28;20364;-77
2021/08/14 02:23:10;;;;;;;8.55;6.22;;;;;;;;;;5049428;28;20695;-82
2021/08/14 02:25:36;;;;;;;11.57;6.77;;;;;;;;;;5049747;28;20378;-83
2021/08/14 02:28:02;;;;;;;9.00;5.70;;;;;;;;;;5049474;28;20371;-83
2021/08/14 02:30:28;;;;;;;8.77;6.20;;;;;;;;;;5031718;28;20443;-82
2021/08/14 02:32:54;;;;;;;9.13;6.32;;;;;;;;;;5049286;28;20883;-81
2021/08/14 02:35:20;;;;;;;11.85;7.35;;;;;;;;;;5049456;28;20364;-79
2021/08/14 02:37:46;;;;;;;9.20;6.43;;;;;;;;;;5030925;28;20784;-81
2021/08/14 02:40:12;;;;;;;8.10;6.00;;;;;;;;;;5203477;22;21001;-80
2021/08/14 02:42:42;;;;;;;8.63;6.45;;;;;;;;;;5048738;28;20421;-84
2021/08/14 02:45:08;;;;;;;6.90;6.17;;;;;;;;;;5048941;28;20772;-83
2021/08/14 02:47:34;;;;;;;8.88;6.20;;;;;;;;;;5049287;28;20374;-81
2021/08/14 02:50:00;;;;;;;8.25;6.30;;;;;;;;;;5031135;28;20388;-82
2021/08/14 02:52:26;;;;;;;8.52;6.22;;;;;;;;;;5049301;28;20449;-82
2021/08/14 02:54:52;;;;;;;10.63;6.20;;;;;;;;;;5049474;28;20376;-85
2021/08/14 02:57:18;;;;;;;6.80;6.10;;;;;;;;;;5031416;28;20438;-83
2021/08/14 02:59:44;;;;;;;7.22;5.90;;;;;;;;;;5048906;28;20428;-83
2021/08/14 03:02:10;;;;;;;6.97;5.95;;;;;;;;;;5048917;28;20395;-78
2021/08/14 03:04:36;;;;;;;8.90;6.15;;;;;;;;;;5031113;28;20954;-82
2021/08/14 03:07:02;;;;;;;8.43;6.10;;;;;;;;;;5048874;28;20722;-80
2021/08/14 03:09:28;;;;;;;7.95;6.18;;;;;;;;;;5048828;28;20419;-83
2021/08/14 03:11:54;;;;;;;9.07;6.43;;;;;;;;;;5049147;28;20433;-83
2021/08/14 03:14:20;;;;;;;8.43;6.55;;;;;;;;;;5049142;28;20367;-82
2021/08/14 03:16:46;;;;;;;7.47;5.90;;;;;;;;;;5048910;28;20372;-79
2021/08/14 03:19:12;;;;;;;7.30;6.22;;;;;;;;;;5049046;28;20458;-81
2021/08/14 03:21:38;;;;;;;6.32;5.63;;;;;;;;;;5048787;28;20722;-81
2021/08/14 03:24:04;;;;;;;9.15;6.45;;;;;;;;;;5031095;28;20869;-83
2021/08/14 03:26:30;;;;;;;8.98;6.38;;;;;;;;;;5030492;28;20415;-78
2021/08/14 03:28:56;;;;;;;10.13;6.20;;;;;;;;;;5048794;28;20499;-84
2021/08/14 03:31:22;;;;;;;8.53;6.70;;;;;;;;;;5030865;28;20379;-82
2021/08/14 03:33:49;;;;;;;9.23;6.00;;;;;;;;;;5048704;28;20776;-84
2021/08/14 03:36:15;;;;;;;8.48;6.55;;;;;;;;;;5030694;28;20379;-82
2021/08/14 03:38:41;;;;;;;8.30;6.10;;;;;;;;;;5048326;28;20482;-82
2021/08/14 03:41:08;;;;;;;11.85;6.15;;;;;;;;;;5048551;28;20429;-79
2021/08/14 03:43:35;;;;;;;7.50;5.97;;;;;;;;;;5030730;28;20391;-80
2021/08/14 03:46:01;;;;;;;8.10;6.22;;;;;;;;;;5048596;28;20745;-81
2021/08/14 03:48:27;;;;;;;7.47;6.17;;;;;;;;;;5048309;28;20366;-84
2021/08/14 03:50:53;;;;;;;9.60;6.00;;;;;;;;;;5048634;28;20467;-82
2021/08/14 03:53:19;;;;;;;10.67;6.83;;;;;;;;;;5049087;28;20402;-79
2021/08/14 03:55:45;;;;;;;9.80;6.60;;;;;;;;;;5048580;28;20876;-84
2021/08/14 03:58:11;;;;;;;7.18;5.72;;;;;;;;;;5048219;28;20451;-78
2021/08/14 04:00:37;;;;;;;8.65;6.30;;;;;;;;;;5048244;28;20376;-78
2021/08/14 04:03:03;;;;;;;8.52;6.22;;;;;;;;;;5048283;28;20368;-79
2021/08/14 04:05:29;;;;;;;9.98;6.57;;;;;;;;;;5048925;28;20397;-81
2021/08/14 04:07:55;;;;;;;10.73;6.50;;;;;;;;;;5030391;28;20390;-84
2021/08/14 04:10:21;;;;;;;9.45;7.10;;;;;;;;;;5048394;28;20372;-83
2021/08/14 04:12:49;;;;;;;9.55;6.53;;;;;;;;;;5048448;28;20411;-84
2021/08/14 04:15:15;;;;;;;7.53;5.97;;;;;;;;;;5030231;28;20415;-80
2021/08/14 04:17:41;;;;;;;8.70;6.63;;;;;;;;;;5048080;28;20427;-82
2021/08/14 04:20:07;;;;;;;8.80;6.28;;;;;;;;;;5047876;28;20837;-80
2021/08/14 04:22:33;;;;;;;11.90;6.20;;;;;;;;;;5030525;28;20380;-82
2021/08/14 04:24:59;;;;;;;8.13;6.55;;;;;;;;;;5048147;28;20416;-84
2021/08/14 04:27:25;;;;;;;9.10;6.70;;;;;;;;;;5048530;28;20371;-82
2021/08/14 04:29:51;;;;;;;7.18;5.93;;;;;;;;;;5030154;28;20387;-80
2021/08/14 04:32:17;;;;;;;9.65;5.90;;;;;;;;;;5030601;28;20383;-80
2021/08/14 04:34:43;;;;;;;8.95;6.68;;;;;;;;;;5048199;28;20534;-84
2021/08/14 04:37:09;;;;;;;9.23;7.30;;;;;;;;;;5049348;28;20738;-80
2021/08/14 04:39:35;;;;;;;9.00;6.88;;;;;;;;;;5051254;28;20478;-80
2021/08/14 04:42:01;;;;;;;8.03;6.30;;;;;;;;;;5051857;28;21011;-82
2021/08/14 04:44:27;;;;;;;8.52;5.88;;;;;;;;;;5051870;28;20367;-81
2021/08/14 04:46:53;;;;;;;7.50;6.03;;;;;;;;;;5033797;28;20394;-81
2021/08/14 04:49:19;;;;;;;8.73;6.38;;;;;;;;;;5033452;28;20389;-84
2021/08/14 04:51:45;;;;;;;7.45;5.85;;;;;;;;;;5051617;28;20426;-83
2021/08/14 04:54:11;;;;;;;6.53;5.90;;;;;;;;;;5051701;28;20736;-84
2021/08/14 04:56:37;;;;;;;10.98;6.03;;;;;;;;;;5051462;28;20363;-82
2021/08/14 04:59:04;;;;;;;8.40;5.72;;;;;;;;;;5051208;28;20843;-82
2021/08/14 05:01:30;;;;;;;11.18;6.57;;;;;;;;;;5051504;28;20710;-82
2021/08/14 05:03:56;;;;;;;9.70;5.80;;;;;;;;;;5051565;28;20434;-80
2021/08/14 05:06:22;;;;;;;9.57;6.28;;;;;;;;;;5033308;28;20729;-81
2021/08/14 05:08:48;;;;;;;6.57;5.68;;;;;;;;;;5051001;28;20403;-82
2021/08/14 05:11:14;;;;;;;8.88;5.80;;;;;;;;;;5033421;28;20920;-79
2021/08/14 05:13:40;;;;;;;15.52;6.18;;;;;;;;;;5051169;28;20372;-79
2021/08/14 05:16:06;;;;;;;10.02;6.10;;;;;;;;;;5050959;28;20462;-82
2021/08/14 05:18:32;;;;;;;9.25;6.28;;;;;;;;;;5050908;28;20820;-81
2021/08/14 05:20:58;;;;;;;9.93;6.17;;;;;;;;;;5050991;28;20372;-81
2021/08/14 05:23:24;;;;;;;10.18;6.05;;;;;;;;;;5050845;28;20403;-78
2021/08/14 05:25:50;;;;;;;9.25;6.13;;;;;;;;;;5033281;28;20375;-78
2021/08/14 05:28:16;;;;;;;10.02;5.78;;;;;;;;;;5050775;28;20407;-80
2021/08/14 05:30:42;;;;;;;8.02;5.97;;;;;;;;;;5050628;28;20438;-81
2021/08/14 05:33:08;;;;;;;10.48;6.78;;;;;;;;;;5033110;28;20722;-82
2021/08/14 05:35:34;;;;;;;8.93;6.20;;;;;;;;;;5050623;28;20383;-82
2021/08/14 05:38:00;;;;;;;7.57;5.95;;;;;;;;;;5050655;28;20410;-83
2021/08/14 05:40:26;;;;;;;7.83;5.93;;;;;;;;;;5050296;28;20387;-83
2021/08/14 05:42:52;;;;;;;9.53;6.07;;;;;;;;;;5032700;28;20503;-80
2021/08/14 05:45:18;;;;;;;8.80;6.15;;;;;;;;;;5050309;28;20479;-82
2021/08/14 05:47:44;;;;;;;9.40;5.95;;;;;;;;;;5050423;28;20360;-86
2021/08/14 05:50:10;;;;;;;8.50;6.05;;;;;;;;;;5050152;28;20371;-83
2021/08/14 05:52:36;;;;;;;8.10;5.70;;;;;;;;;;5032472;28;20686;-84
2021/08/14 05:55:03;;;;;;;8.30;5.45;;;;;;;;;;5050564;28;20415;-82
2021/08/14 05:57:28;;;;;;;9.38;6.20;;;;;;;;;;5050124;28;20429;-82
2021/08/14 05:59:54;;;;;;;7.63;5.40;;;;;;;;;;5049982;28;20928;-84
2021/08/14 06:02:21;;;;;;;8.73;5.70;;;;;;;;;;5050359;28;20380;-83
2021/08/14 06:04:47;;;;;;;12.07;5.55;;;;;;;;;;5050302;28;20710;-82
2021/08/14 06:07:12;;;;;;;11.77;5.57;;;;;;;;;;5049879;28;20375;-83
2021/08/14 06:09:39;;;;;;;10.15;5.70;;;;;;;;;;5049745;28;20394;-83
2021/08/14 06:12:05;;;;;;;10.50;5.57;;;;;;;;;;5050122;28;20372;-81
2021/08/14 06:14:32;;;;;;;8.75;5.10;;;;;;;;;;5049822;28;20376;-83
2021/08/14 06:16:58;;;;;;;8.95;5.53;;;;;;;;;;5030392;28;20392;-79
2021/08/14 06:19:25;;;;;;;9.50;5.47;;;;;;;;;;5047863;28;20415;-83
2021/08/14 06:21:51;;;;;;;11.85;4.90;;;;;;;;;;5049840;28;20418;-82
2021/08/14 06:24:17;;;;;;;9.13;5.27;;;;;;;;;;5050092;28;20392;-84
2021/08/14 06:26:43;;;;;;;9.60;5.22;;;;;;;;;;5050573;28;20388;-83
2021/08/14 06:29:09;;;;;;;9.63;5.20;;;;;;;;;;5031608;28;20396;-85
2021/08/14 06:31:34;;;;;;;9.40;4.80;;;;;;;;;;5051668;28;20372;-82
2021/08/14 06:34:00;;;;;;;10.40;4.97;;;;;;;;;;5032758;28;20399;-80
2021/08/14 06:36:26;;;;;;;7.55;4.80;;;;;;;;;;5049662;28;20411;-80
2021/08/14 06:38:52;;;;;;;10.18;5.18;;;;;;;;;;5031303;28;20396;-81
2021/08/14 06:41:18;;;;;;;9.40;4.70;;;;;;;;;;5049387;28;20372;-81
2021/08/14 06:43:44;;;;;;;9.95;4.88;;;;;;;;;;5049264;28;20422;-80
2021/08/14 06:46:10;;;;;;;8.82;4.70;;;;;;;;;;5049279;28;20438;-82
2021/08/14 06:48:36;;;;;;;12.23;5.05;;;;;;;;;;5049975;28;20372;-82
2021/08/14 06:51:03;;;;;;;10.57;4.88;;;;;;;;;;5049694;28;20364;-82
2021/08/14 06:53:29;;;;;;;10.52;5.28;;;;;;;;;;5050363;28;20394;-82
2021/08/14 06:55:55;;;;;;;10.52;5.13;;;;;;;;;;5049469;28;20384;-84
2021/08/14 06:58:21;;;;;;;11.03;5.30;;;;;;;;;;5049407;28;20399;-80
2021/08/14 07:00:47;;;;;;;10.35;4.88;;;;;;;;;;5048007;28;20921;-82
2021/08/14 07:03:13;;;;;;;12.20;5.10;;;;;;;;;;5031733;28;20388;-82
2021/08/14 07:05:40;;;;;;;11.00;4.60;;;;;;;;;;5031353;28;20418;-83
2021/08/14 07:08:06;;;;;;;10.05;4.88;;;;;;;;;;5049367;28;20383;-79
2021/08/14 07:10:32;;;;;;;8.73;4.60;;;;;;;;;;5049376;28;20367;-81
2021/08/14 07:12:58;;;;;;;9.52;4.70;;;;;;;;;;5049224;28;20463;-80
2021/08/14 07:15:24;;;;;;;9.45;3.97;;;;;;;;;;5031322;28;20800;-82
2021/08/14 07:17:50;;;;;;;9.98;4.50;;;;;;;;;;5048854;28;20431;-83
2021/08/14 07:20:16;;;;;;;9.07;4.45;;;;;;;;;;5048826;28;20853;-84
2021/08/14 07:22:42;;;;;;;7.55;3.92;;;;;;;;;;5049704;28;20368;-81
2021/08/14 07:25:08;;;;;;;11.60;4.22;;;;;;;;;;5048994;28;20896;-81
2021/08/14 07:27:34;;;;;;;8.80;3.97;;;;;;;;;;5043132;28;20374;-82
2021/08/14 07:30:00;;;;;;;9.10;4.28;;;;;;;;;;5068546;28;20786;-83
2021/08/14 07:32:26;;;;;;;10.13;4.10;;;;;;;;;;5050388;28;20369;-81
2021/08/14 07:34:52;;;;;;;9.50;3.90;;;;;;;;;;5068051;28;20366;-81
2021/08/14 07:37:18;;;;;;;11.03;3.87;;;;;;;;;;5067881;28;20751;-82
2021/08/14 07:39:45;;;;;;;11.90;4.40;;;;;;;;;;5068306;28;20393;-84
2021/08/14 07:42:11;;;;;;;8.10;3.63;;;;;;;;;;5068265;28;20377;-83
2021/08/14 07:44:37;;;;;;;11.38;4.05;;;;;;;;;;5067745;28;20528;-78
2021/08/14 07:47:03;;;;;;;11.43;3.85;;;;;;;;;;5068655;28;20475;-80
2021/08/14 07:49:29;;;;;;;9.90;3.78;;;;;;;;;;5068631;28;20381;-80
2021/08/14 07:51:55;;;;;;;9.32;4.00;;;;;;;;;;5067565;28;20362;-80
2021/08/14 07:54:21;;;;;;;10.00;3.80;;;;;;;;;;5067925;28;20462;-82
2021/08/14 07:56:47;;;;;;;10.80;3.92;;;;;;;;;;5068979;28;20512;-79
2021/08/14 07:59:13;;;;;;;10.18;3.40;;;;;;;;;;5068916;28;20398;-83
2021/08/14 08:01:39;;;;;;;10.02;3.67;;;;;;;;;;5069216;28;20737;-79
2021/08/14 08:04:05;;;;;;;9.20;3.67;;;;;;;;;;5069198;28;20402;-85
2021/08/14 08:06:31;;;;;;;11.45;3.60;;;;;;;;;;5068569;28;20381;-80
2021/08/14 08:08:57;;;;;;;9.63;3.70;;;;;;;;;;5066592;28;20398;-80
2021/08/14 08:11:23;;;;;;;10.27;4.00;;;;;;;;;;5049427;28;20498;-80
2021/08/14 08:13:49;;;;;;;9.80;3.35;;;;;;;;;;5070565;28;20408;-80
2021/08/14 08:16:15;;;;;;;8.45;3.63;;;;;;;;;;5070799;28;20374;-78
2021/08/14 08:18:41;;;;;;;9.33;4.00;;;;;;;;;;5071272;28;20540;-82
2021/08/14 08:21:07;;;;;;;9.32;3.92;;;;;;;;;;5070590;28;20370;-82
2021/08/14 08:23:33;;;;;;;10.95;3.63;;;;;;;;;;5069856;28;20519;-81
2021/08/14 08:25:59;;;;;;;12.10;3.87;;;;;;;;;;5071597;28;20363;-81
2021/08/14 08:28:25;;;;;;;11.02;4.43;;;;;;;;;;5071192;28;20697;-86
2021/08/14 08:30:51;;;;;;;8.73;3.25;;;;;;;;;;5071573;28;20370;-79
2021/08/14 08:33:17;;;;;;;8.65;3.53;;;;;;;;;;5070767;28;20400;-80
2021/08/14 08:35:43;;;;;;;8.40;4.00;;;;;;;;;;5053758;28;20378;-84
2021/08/14 08:38:09;;;;;;;7.90;3.50;;;;;;;;;;5071473;28;20413;-83
2021/08/14 08:40:39;;;;;;;10.35;3.85;;;;;;;;;;5070662;28;20504;-83
2021/08/14 08:43:05;;;;;;;7.28;3.53;;;;;;;;;;5069938;28;20374;-79
2021/08/14 08:45:32;;;;;;;9.53;3.73;;;;;;;;;;5070232;28;20452;-85
2021/08/14 08:47:58;;;;;;;8.13;4.00;;;;;;;;;;5070111;28;20403;-83
2021/08/14 08:50:30;;;;;;;10.03;3.30;;;;;;;;;;5051597;28;20421;-79
2021/08/14 08:52:56;;;;;;;9.73;3.42;;;;;;;;;;5069016;28;20373;-83
2021/08/14 08:55:23;;;;;;;8.88;3.55;;;;;;;;;;5070626;28;20358;-86
2021/08/14 08:57:50;;;;;;;7.63;3.43;;;;;;;;;;5051838;28;20421;-81
2021/08/14 09:00:17;;;;;;;8.47;3.43;;;;;;;;;;5052339;28;20382;-80
2021/08/14 09:02:48;;;;;;;9.13;3.60;;;;;;;;;;5051573;28;20370;-82
2021/08/14 09:05:15;;;;;;;7.15;3.42;;;;;;;;;;5071855;28;20389;-85
2021/08/14 09:07:42;;;;;;;9.50;3.90;;;;;;;;;;5069931;28;20374;-82
2021/08/14 09:10:13;;;;;;;6.72;3.13;;;;;;;;;;5069249;28;20374;-80
2021/08/14 09:12:41;;;;;;;7.00;3.40;;;;;;;;;;5065960;28;20755;-84
2021/08/14 09:15:14;;;;;;;9.95;3.65;;;;;;;;;;5065582;28;20370;-82
2021/08/14 09:17:40;;;;;;;9.18;3.25;;;;;;;;;;5048839;28;20481;-78
2021/08/14 09:20:08;;;;;;;8.50;3.33;;;;;;;;;;5069576;28;20421;-82
2021/08/14 09:22:34;;;;;;;9.02;3.45;;;;;;;;;;5051399;28;20499;-87
2021/08/14 09:25:10;;;;;;;8.27;3.35;;;;;;;;;;5069646;28;20417;-84
2021/08/14 09:27:48;;;;;;;9.70;3.30;;;;;;;;;;5069948;28;20730;-85
2021/08/14 09:30:15;;;;;;;8.87;3.80;;;;;;;;;;5069211;28;20872;-83
2021/08/14 09:32:41;;;;;;;9.47;3.43;;;;;;;;;;5069147;28;20374;-84
2021/08/14 09:35:08;;;;;;;8.55;3.70;;;;;;;;;;5067591;28;20931;-84
2021/08/14 09:37:38;;;;;;;9.23;3.70;;;;;;;;;;5049256;28;20479;-83
2021/08/14 09:40:05;;;;;;;8.32;3.72;;;;;;;;;;5066090;28;20377;-84
2021/08/14 09:42:48;;;;;;;11.25;3.78;;;;;;;;;;5069686;28;20375;-87
2021/08/14 09:45:16;;;;;;;11.50;4.10;;;;;;;;;;5068139;28;20427;-85
2021/08/14 09:47:43;;;;;;;7.30;3.60;;;;;;;;;;5067674;28;20835;-83
2021/08/14 09:50:09;;;;;;;7.28;3.38;;;;;;;;;;5069028;28;20431;-86
2021/08/14 09:52:35;;;;;;;7.45;3.67;;;;;;;;;;5051413;28;20405;-86
2021/08/14 09:55:01;;;;;;;7.55;3.40;;;;;;;;;;5066993;28;20380;-83
2021/08/14 09:57:27;;;;;;;10.27;3.95;;;;;;;;;;5068267;28;21012;-84
2021/08/14 09:59:53;;;;;;;7.18;3.15;;;;;;;;;;5068983;28;20408;-82
2021/08/14 10:02:22;;;;;;;8.38;3.45;;;;;;;;;;5068950;28;20381;-85
2021/08/14 10:04:49;;;;;;;6.63;3.03;;;;;;;;;;5068837;28;20382;-80
2021/08/14 10:07:15;;;;;;;7.13;3.55;;;;;;;;;;5050468;28;20401;-84
2021/08/14 10:09:42;;;;;;;7.05;3.63;;;;;;;;;;5069259;28;20774;-82
2021/08/14 10:12:10;;;;;;;8.65;3.22;;;;;;;;;;5069028;28;20382;-82
2021/08/14 10:14:37;;;;;;;8.90;3.50;;;;;;;;;;5068028;28;20370;-84
2021/08/14 10:17:03;;;;;;;8.88;3.60;;;;;;;;;;5068089;28;20457;-81
2021/08/14 10:19:29;;;;;;;7.10;3.67;;;;;;;;;;5068994;28;20420;-80
2021/08/14 10:21:56;;;;;;;7.20;3.33;;;;;;;;;;5051004;28;20378;-81
2021/08/14 10:24:22;;;;;;;8.20;3.53;;;;;;;;;;5069270;28;20362;-81
2021/08/14 10:26:50;;;;;;;10.30;4.00;;;;;;;;;;5065682;28;20909;-81
2021/08/14 10:29:37;;;;;;;7.13;3.65;;;;;;;;;;5050610;28;20433;-84
2021/08/14 10:32:04;;;;;;;6.35;3.67;;;;;;;;;;5068336;28;20454;-84
2021/08/14 10:34:30;;;;;;;7.33;3.77;;;;;;;;;;5049665;28;20382;-84
2021/08/14 10:36:56;;;;;;;9.90;3.87;;;;;;;;;;5068073;28;20381;-86
2021/08/14 10:39:22;;;;;;;8.85;3.83;;;;;;;;;;5068504;28;20395;-84
2021/08/14 10:41:50;;;;;;;7.28;3.63;;;;;;;;;;5069020;28;20358;-81
2021/08/14 10:44:16;;;;;;;7.55;3.42;;;;;;;;;;5063627;28;20397;-80
2021/08/14 10:46:42;;;;;;;8.10;3.92;;;;;;;;;;5068147;28;20390;-79
2021/08/14 10:49:12;;;;;;;6.43;3.45;;;;;;;;;;5068397;28;20402;-83
2021/08/14 10:51:48;;;;;;;10.15;3.50;;;;;;;;;;5068265;28;20465;-84
2021/08/14 10:54:14;;;;;;;7.68;3.55;;;;;;;;;;5048642;28;20382;-84
2021/08/14 10:56:50;;;;;;;9.75;3.70;;;;;;;;;;5050695;28;20378;-81
2021/08/14 10:59:55;;;;;;;6.70;3.35;;;;;;;;;;5047818;28;20409;-84
2021/08/14 11:02:21;;;;;;;6.45;3.35;;;;;;;;;;5049168;28;20384;-77
2021/08/14 11:04:57;;;;;;;7.10;3.37;;;;;;;;;;5050719;28;20469;-81
2021/08/14 11:07:23;;;;;;;7.40;3.80;;;;;;;;;;5067126;28;20735;-82
2021/08/14 11:09:58;;;;;;;6.53;3.67;;;;;;;;;;5049131;28;20477;-84
2021/08/14 11:12:43;;;;;;;9.48;3.45;;;;;;;;;;5049288;28;20382;-84
2021/08/14 11:15:26;;;;;;;6.00;3.20;;;;;;;;;;5067643;28;20409;-84
2021/08/14 11:17:51;;;;;;;5.27;3.10;;;;;;;;;;5067663;28;20398;-88
2021/08/14 11:20:21;;;;;;;6.60;3.50;;;;;;;;;;5048298;28;20481;-84
2021/08/14 11:22:50;;;;;;;7.65;3.45;;;;;;;;;;5049444;28;20386;-81
2021/08/14 11:25:22;;;;;;;7.10;3.55;;;;;;;;;;5067132;28;20393;-86
2021/08/14 11:28:01;;;;;;;6.63;3.27;;;;;;;;;;5067759;28;20732;-84
2021/08/14 11:30:34;;;;;;;6.47;3.17;;;;;;;;;;5048409;28;20790;-82
2021/08/14 11:33:03;;;;;;;5.77;3.37;;;;;;;;;;5066084;28;20377;-85
2021/08/14 11:35:30;;;;;;;8.30;3.90;;;;;;;;;;5051334;28;20444;-85
2021/08/14 11:38:00;;;;;;;6.43;3.38;;;;;;;;;;5065709;28;20937;-82
2021/08/14 11:40:33;;;;;;;8.75;3.42;;;;;;;;;;5048671;28;20425;-81
2021/08/14 11:43:01;;;;;;;6.63;3.47;;;;;;;;;;5066036;28;20436;-85
2021/08/14 11:45:28;;;;;;;7.15;3.58;;;;;;;;;;5043766;28;20786;-81
2021/08/14 11:47:56;;;;;;;6.07;3.23;;;;;;;;;;5052976;28;20787;-84
2021/08/14 11:50:22;;;;;;;7.38;3.60;;;;;;;;;;5050061;28;20465;-81
2021/08/14 11:52:48;;;;;;;7.40;3.65;;;;;;;;;;5053234;28;20958;-86
2021/08/14 11:55:14;;;;;;;7.32;3.67;;;;;;;;;;5070959;28;20382;-82
2021/08/14 11:57:40;;;;;;;6.95;3.45;;;;;;;;;;5053247;28;20883;-88
2021/08/14 12:00:18;;;;;;;5.18;3.22;;;;;;;;;;5070936;28;21078;-86
2021/08/14 12:02:45;;;;;;;6.82;3.30;;;;;;;;;;5069713;28;20464;-82
2021/08/14 12:05:11;;;;;;;7.78;3.97;;;;;;;;;;5071751;28;20378;-84
2021/08/14 12:07:37;;;;;;;7.65;3.58;;;;;;;;;;5072106;28;20374;-86
2021/08/14 12:10:03;;;;;;;9.13;3.88;;;;;;;;;;5071110;28;20401;-82
2021/08/14 12:12:30;;;;;;;7.90;3.60;;;;;;;;;;5071466;28;20770;-88
2021/08/14 12:14:56;;;;;;;11.85;4.05;;;;;;;;;;5070732;28;20861;-84
2021/08/14 12:17:22;;;;;;;9.77;4.15;;;;;;;;;;5052053;28;20465;-84
2021/08/14 12:19:48;;;;;;;6.57;3.47;;;;;;;;;;5068212;28;20956;-82
2021/08/14 12:22:16;;;;;;;8.90;3.40;;;;;;;;;;5053395;28;20386;-82
2021/08/14 12:24:44;;;;;;;8.45;3.92;;;;;;;;;;5050719;28;20370;-82
2021/08/14 12:27:31;;;;;;;8.90;4.10;;;;;;;;;;5068293;28;20417;-83
2021/08/14 12:30:14;;;;;;;8.20;3.80;;;;;;;;;;5070478;28;20373;-84
2021/08/14 12:32:40;;;;;;;13.80;3.90;;;;;;;;;;5051913;28;20391;-85
2021/08/14 12:35:17;;;;;;;10.13;3.90;;;;;;;;;;5070284;28;20391;-83
2021/08/14 12:37:43;;;;;;;10.43;3.85;;;;;;;;;;5068599;28;20428;-82
2021/08/14 12:40:09;;;;;;;9.70;3.97;;;;;;;;;;5054628;28;20888;-85
2021/08/14 12:42:36;;;;;;;8.48;4.13;;;;;;;;;;5066851;28;20435;-85
2021/08/14 12:45:21;;;;;;;6.40;3.42;;;;;;;;;;5069476;28;20385;-84
2021/08/14 12:47:49;;;;;;;8.13;3.97;;;;;;;;;;5071053;28;20876;-86
2021/08/14 12:50:18;;;;;;;8.60;4.00;;;;;;;;;;5070489;28;20808;-84
2021/08/14 12:52:58;;;;;;;9.70;3.90;;;;;;;;;;5069643;28;20425;-85
2021/08/14 12:55:34;;;;;;;11.33;4.30;;;;;;;;;;5069846;28;20421;-84
2021/08/14 12:58:01;;;;;;;7.35;4.00;;;;;;;;;;5070460;28;21054;-83
2021/08/14 13:00:28;;;;;;;7.70;3.63;;;;;;;;;;5070600;28;20401;-85
2021/08/14 13:02:55;;;;;;;10.10;3.70;;;;;;;;;;5070525;28;20851;-83
2021/08/14 13:05:21;;;;;;;10.30;3.83;;;;;;;;;;5070352;28;20374;-83
2021/08/14 13:07:47;;;;;;;9.70;3.95;;;;;;;;;;5069320;28;20374;-81
2021/08/14 13:10:14;;;;;;;11.65;4.28;;;;;;;;;;5068622;28;20451;-85
2021/08/14 13:12:50;;;;;;;6.78;3.67;;;;;;;;;;5068888;28;20382;-85
2021/08/14 13:15:16;;;;;;;7.20;3.70;;;;;;;;;;5050423;28;20424;-81
2021/08/14 13:17:42;;;;;;;7.10;3.78;;;;;;;;;;5070023;28;20433;-84
2021/08/14 13:20:09;;;;;;;6.72;3.45;;;;;;;;;;5069922;28;20402;-86
2021/08/14 13:22:36;;;;;;;10.00;4.18;;;;;;;;;;5070801;28;20436;-88
2021/08/14 13:25:01;;;;;;;8.30;3.90;;;;;;;;;;5068430;28;20406;-81
2021/08/14 13:27:28;;;;;;;8.73;3.97;;;;;;;;;;5070278;28;20397;-83
2021/08/14 13:29:53;;;;;;;7.03;4.10;;;;;;;;;;5051355;28;20732;-83
2021/08/14 13:32:19;;;;;;;7.97;3.70;;;;;;;;;;5068467;28;20377;-81
2021/08/14 13:34:46;;;;;;;7.40;3.70;;;;;;;;;;5069170;28;20741;-80
2021/08/14 13:37:13;;;;;;;6.90;4.00;;;;;;;;;;5050921;28;20861;-83
2021/08/14 13:39:39;;;;;;;9.63;4.28;;;;;;;;;;5049925;28;20441;-83
2021/08/14 13:42:06;;;;;;;8.43;3.95;;;;;;;;;;5069133;28;20383;-81
2021/08/14 13:44:32;;;;;;;8.90;4.00;;;;;;;;;;5051198;28;20508;-79
2021/08/14 13:46:58;;;;;;;8.05;4.20;;;;;;;;;;5069510;28;20367;-80
2021/08/14 13:49:24;;;;;;;9.10;4.18;;;;;;;;;;5069796;28;20771;-84
2021/08/14 13:51:50;;;;;;;8.55;4.40;;;;;;;;;;5051580;28;20741;-81
2021/08/14 13:54:16;;;;;;;7.35;3.95;;;;;;;;;;5051167;28;20378;-82
2021/08/14 13:56:43;;;;;;;7.85;4.07;;;;;;;;;;5051521;28;20928;-83
2021/08/14 13:59:09;;;;;;;9.10;4.00;;;;;;;;;;5066690;28;20405;-82
2021/08/14 14:01:35;;;;;;;9.07;4.32;;;;;;;;;;5069779;28;20780;-79
2021/08/14 14:04:01;;;;;;;10.15;4.38;;;;;;;;;;5069816;28;20728;-78
2021/08/14 14:06:27;;;;;;;5.67;3.80;;;;;;;;;;5068569;28;20772;-83
2021/08/14 14:08:53;;;;;;;8.40;4.10;;;;;;;;;;5068948;28;20377;-83
2021/08/14 14:11:19;;;;;;;7.32;4.13;;;;;;;;;;5069252;28;20382;-84
2021/08/14 14:13:45;;;;;;;6.00;3.90;;;;;;;;;;5068209;28;20863;-83
2021/08/14 14:16:11;;;;;;;8.45;3.97;;;;;;;;;;5068198;28;20848;-83
2021/08/14 14:18:37;;;;;;;6.22;3.78;;;;;;;;;;5067727;28;20406;-83
2021/08/14 14:21:04;;;;;;;8.80;3.80;;;;;;;;;;5065338;28;20400;-84
2021/08/14 14:23:30;;;;;;;8.02;4.10;;;;;;;;;;5059270;28;21093;-83
2021/08/14 14:25:57;;;;;;;8.57;3.90;;;;;;;;;;5044263;28;20386;-82
2021/08/14 14:28:23;;;;;;;6.93;4.30;;;;;;;;;;5068212;28;20897;-83
2021/08/14 14:30:49;;;;;;;7.72;4.30;;;;;;;;;;5069131;28;20875;-86
2021/08/14 14:33:15;;;;;;;5.25;3.90;;;;;;;;;;5050544;28;20394;-84
2021/08/14 14:35:41;;;;;;;6.82;3.83;;;;;;;;;;5068715;28;20461;-81
2021/08/14 14:38:07;;;;;;;9.68;4.20;;;;;;;;;;5049993;28;20556;-82
2021/08/14 14:40:34;;;;;;;6.90;3.60;;;;;;;;;;5064011;28;20389;-86